Time;durP1;ratioP1;P1;durP2;ratioP2;P2;SDS_P1;SDS_P2;PMS_P1;PMS_P2;Temp;Humidity;BMP_temperature;BMP_pressure;BME280_temperature;BME280_humidity;BME280_pressure;Samples;Min_cycle;Max_cycle;Signal;HPM_P1;HPM_P2
2020/12/16 00:00:24;;;;;;;4.90;4.50;;;21.50;35.20;;;;;;5000104;28;20780;-56
2020/12/16 00:02:49;;;;;;;5.00;4.50;;;21.50;35.10;;;;;;4999053;28;20410;-56
2020/12/16 00:05:15;;;;;;;4.90;4.50;;;21.50;35.00;;;;;;4999602;28;20416;-55
2020/12/16 00:07:41;;;;;;;5.00;4.50;;;21.40;34.80;;;;;;5000814;28;20388;-55
2020/12/16 00:10:09;;;;;;;5.07;4.57;;;21.40;34.80;;;;;;5008739;28;20498;-56
2020/12/16 00:12:41;;;;;;;5.07;4.65;;;21.40;34.70;;;;;;5010934;28;20465;-57
2020/12/16 00:15:07;;;;;;;5.22;4.72;;;21.40;34.70;;;;;;5010853;28;20784;-55
2020/12/16 00:17:34;;;;;;;5.05;4.55;;;21.40;34.70;;;;;;5010477;28;20421;-56
2020/12/16 00:20:00;;;;;;;4.97;4.47;;;21.40;34.60;;;;;;5010774;28;20425;-62
2020/12/16 00:22:26;;;;;;;4.72;4.20;;;21.40;34.40;;;;;;5010932;28;20421;-65
2020/12/16 00:24:51;;;;;;;4.60;4.10;;;21.30;34.40;;;;;;5010835;28;20774;-56
2020/12/16 00:27:17;;;;;;;4.60;4.20;;;21.30;34.30;;;;;;5010774;28;20403;-55
2020/12/16 00:29:43;;;;;;;5.00;4.60;;;21.30;34.40;;;;;;5010279;28;20442;-55
2020/12/16 00:32:08;;;;;;;4.85;4.43;;;21.30;34.30;;;;;;5010691;28;20442;-55
2020/12/16 00:34:34;;;;;;;4.80;4.40;;;21.30;34.30;;;;;;5010555;28;20393;-56
2020/12/16 00:37:00;;;;;;;4.63;4.22;;;21.30;34.30;;;;;;5012049;28;20377;-55
2020/12/16 00:39:25;;;;;;;4.77;4.30;;;21.30;34.20;;;;;;5013791;28;20473;-55
2020/12/16 00:41:51;;;;;;;4.80;4.25;;;21.30;34.20;;;;;;5014062;28;20741;-56
2020/12/16 00:44:17;;;;;;;4.70;4.30;;;21.30;34.20;;;;;;5014061;28;20404;-55
2020/12/16 00:46:42;;;;;;;4.80;4.40;;;21.30;34.20;;;;;;5014081;28;20483;-55
2020/12/16 00:49:08;;;;;;;4.65;4.25;;;21.30;34.10;;;;;;5013839;28;20392;-55
2020/12/16 00:51:34;;;;;;;4.70;4.30;;;21.30;34.10;;;;;;5013590;28;20388;-56
2020/12/16 00:53:59;;;;;;;4.65;4.25;;;21.30;34.00;;;;;;5012856;28;20392;-55
2020/12/16 00:56:25;;;;;;;4.57;4.17;;;21.30;34.10;;;;;;5013686;28;20396;-54
2020/12/16 00:58:51;;;;;;;4.88;4.47;;;21.30;34.10;;;;;;5013793;28;20429;-55
2020/12/16 01:01:17;;;;;;;4.57;4.17;;;21.30;34.00;;;;;;4949904;28;1321181;-55
2020/12/16 01:03:42;;;;;;;4.25;3.85;;;21.30;34.10;;;;;;4997177;28;20400;-55
2020/12/16 01:06:10;;;;;;;4.47;4.07;;;21.30;34.00;;;;;;5014994;28;20412;-55
2020/12/16 01:08:39;;;;;;;4.68;4.28;;;21.20;33.90;;;;;;5014870;28;20609;-55
2020/12/16 01:11:05;;;;;;;4.53;4.13;;;21.20;34.00;;;;;;5014820;28;20391;-55
2020/12/16 01:13:30;;;;;;;3.97;3.67;;;21.20;33.90;;;;;;5014621;28;20492;-55
2020/12/16 01:15:56;;;;;;;4.47;4.07;;;21.20;33.90;;;;;;5014724;28;20458;-55
2020/12/16 01:18:22;;;;;;;4.38;3.97;;;21.20;33.90;;;;;;5014677;28;20403;-55
2020/12/16 01:20:47;;;;;;;4.80;4.30;;;21.20;33.90;;;;;;5014715;28;20393;-55
2020/12/16 01:23:13;;;;;;;4.60;4.20;;;21.20;33.90;;;;;;5014709;28;20389;-55
2020/12/16 01:25:38;;;;;;;4.20;3.80;;;21.10;33.90;;;;;;5014243;28;20756;-55
2020/12/16 01:28:04;;;;;;;4.35;3.95;;;21.10;33.80;;;;;;5014305;28;20384;-55
2020/12/16 01:30:30;;;;;;;4.27;3.87;;;21.10;33.80;;;;;;5014558;28;20567;-56
2020/12/16 01:32:57;;;;;;;4.38;3.97;;;21.10;33.80;;;;;;5014371;28;20895;-55
2020/12/16 01:35:24;;;;;;;4.28;3.88;;;21.10;33.80;;;;;;5014471;28;20432;-55
2020/12/16 01:37:49;;;;;;;4.22;3.92;;;21.10;33.80;;;;;;5014201;28;20385;-55
2020/12/16 01:40:15;;;;;;;4.47;4.07;;;21.10;33.80;;;;;;4996727;28;20416;-55
2020/12/16 01:42:41;;;;;;;4.10;3.80;;;21.10;33.80;;;;;;5014363;28;20746;-55
2020/12/16 01:45:17;;;;;;;4.03;3.70;;;21.10;33.80;;;;;;5014335;28;20389;-55
2020/12/16 01:47:43;;;;;;;4.25;3.85;;;21.10;33.80;;;;;;5013446;28;20442;-55
2020/12/16 01:50:10;;;;;;;4.20;3.80;;;21.10;33.80;;;;;;5014224;28;20388;-55
2020/12/16 01:52:37;;;;;;;4.03;3.72;;;21.10;33.70;;;;;;5014229;28;20389;-55
2020/12/16 01:55:05;;;;;;;4.15;3.78;;;21.10;33.70;;;;;;5014118;28;20451;-55
2020/12/16 01:57:39;;;;;;;3.90;3.60;;;21.10;33.70;;;;;;5013862;28;20393;-55
2020/12/16 02:00:08;;;;;;;4.22;3.90;;;21.10;33.60;;;;;;5014030;28;20424;-55
2020/12/16 02:02:38;;;;;;;4.32;3.92;;;21.10;33.60;;;;;;5013796;28;20400;-55
2020/12/16 02:05:04;;;;;;;4.32;3.92;;;21.10;33.50;;;;;;5013714;28;20884;-55
2020/12/16 02:07:31;;;;;;;4.20;3.80;;;21.10;33.50;;;;;;5013635;28;20447;-55
2020/12/16 02:09:57;;;;;;;4.00;3.70;;;21.10;33.50;;;;;;5012543;28;20401;-55
2020/12/16 02:12:29;;;;;;;3.97;3.60;;;21.10;33.50;;;;;;5013308;28;20407;-55
2020/12/16 02:14:54;;;;;;;4.00;3.70;;;21.10;33.60;;;;;;5013924;28;20381;-55
2020/12/16 02:17:20;;;;;;;4.07;3.67;;;21.10;33.50;;;;;;5013740;28;20403;-55
2020/12/16 02:19:55;;;;;;;3.70;3.40;;;21.10;33.50;;;;;;5013086;28;20427;-55
2020/12/16 02:22:20;;;;;;;3.72;3.42;;;21.10;33.50;;;;;;5013582;28;20408;-55
2020/12/16 02:25:03;;;;;;;3.67;3.38;;;21.00;33.40;;;;;;5013673;28;20397;-55
2020/12/16 02:27:29;;;;;;;3.85;3.42;;;21.00;33.40;;;;;;5013474;28;20393;-55
2020/12/16 02:29:55;;;;;;;3.90;3.60;;;21.10;33.40;;;;;;5013237;28;20396;-55
2020/12/16 02:32:27;;;;;;;3.80;3.50;;;21.10;33.40;;;;;;5013430;28;20385;-55
2020/12/16 02:34:55;;;;;;;4.10;3.70;;;21.00;33.30;;;;;;5013453;28;20401;-55
2020/12/16 02:37:20;;;;;;;3.70;3.40;;;21.10;33.40;;;;;;5013137;28;20424;-55
2020/12/16 02:39:46;;;;;;;3.50;3.20;;;21.00;33.30;;;;;;5012835;28;20425;-55
2020/12/16 02:42:13;;;;;;;3.80;3.50;;;21.00;33.40;;;;;;5013228;28;20400;-55
2020/12/16 02:44:39;;;;;;;3.75;3.45;;;21.00;33.40;;;;;;5013173;28;20412;-55
2020/12/16 02:47:07;;;;;;;3.87;3.57;;;21.10;33.40;;;;;;5013260;28;20398;-55
2020/12/16 02:49:32;;;;;;;3.70;3.40;;;21.00;33.30;;;;;;5012925;28;20420;-55
2020/12/16 02:51:59;;;;;;;3.60;3.30;;;21.00;33.30;;;;;;5012818;28;20749;-56
2020/12/16 02:54:25;;;;;;;3.67;3.38;;;21.00;33.30;;;;;;5012912;28;20493;-55
2020/12/16 02:56:53;;;;;;;3.40;3.10;;;21.00;33.30;;;;;;5012962;28;20896;-55
2020/12/16 02:59:23;;;;;;;3.58;3.28;;;21.10;33.40;;;;;;5012140;28;20421;-56
2020/12/16 03:01:53;;;;;;;3.40;3.10;;;21.00;33.30;;;;;;5012252;28;20416;-55
2020/12/16 03:04:20;;;;;;;3.40;3.10;;;21.00;33.30;;;;;;5012846;28;20383;-55
2020/12/16 03:06:49;;;;;;;3.80;3.50;;;21.00;33.30;;;;;;5012816;28;20388;-55
2020/12/16 03:09:16;;;;;;;3.80;3.30;;;21.00;33.30;;;;;;5012690;28;20452;-55
2020/12/16 03:11:42;;;;;;;3.78;3.47;;;21.00;33.30;;;;;;5012333;28;20396;-55
2020/12/16 03:14:07;;;;;;;3.38;3.08;;;21.00;33.30;;;;;;5012706;28;20397;-55
2020/12/16 03:16:33;;;;;;;3.47;3.17;;;21.00;33.30;;;;;;5012789;28;20408;-55
2020/12/16 03:18:59;;;;;;;3.40;3.10;;;21.00;33.30;;;;;;5012700;28;20420;-55
2020/12/16 03:21:25;;;;;;;3.40;3.10;;;20.90;33.30;;;;;;5012706;28;20447;-55
2020/12/16 03:23:52;;;;;;;3.42;3.13;;;21.00;33.30;;;;;;5012068;28;20860;-55
2020/12/16 03:26:18;;;;;;;3.53;3.22;;;21.00;33.30;;;;;;5012500;28;20483;-55
2020/12/16 03:28:45;;;;;;;3.70;3.40;;;21.00;33.20;;;;;;5012463;28;20388;-55
2020/12/16 03:31:11;;;;;;;3.60;3.30;;;21.00;33.20;;;;;;5012394;28;20392;-55
2020/12/16 03:33:43;;;;;;;3.50;3.20;;;21.00;33.20;;;;;;5012417;28;20476;-55
2020/12/16 03:36:19;;;;;;;3.47;3.17;;;21.00;33.20;;;;;;5012373;28;20457;-55
2020/12/16 03:38:46;;;;;;;3.50;3.20;;;21.00;33.20;;;;;;5012255;28;20490;-55
2020/12/16 03:41:14;;;;;;;3.60;3.30;;;21.00;33.20;;;;;;5012202;28;20756;-55
2020/12/16 03:43:39;;;;;;;3.40;3.10;;;21.00;33.10;;;;;;5011842;28;20404;-55
2020/12/16 03:46:09;;;;;;;3.63;3.33;;;21.00;33.30;;;;;;4994582;28;20479;-55
2020/12/16 03:48:36;;;;;;;3.50;3.20;;;21.00;33.20;;;;;;4994592;28;20393;-55
2020/12/16 03:51:06;;;;;;;3.50;3.20;;;21.00;33.20;;;;;;4994570;28;20415;-55
2020/12/16 03:53:33;;;;;;;3.40;3.10;;;21.00;33.20;;;;;;5012136;28;20393;-55
2020/12/16 03:56:03;;;;;;;3.28;2.97;;;21.00;33.20;;;;;;5011794;28;20877;-55
2020/12/16 03:58:29;;;;;;;3.60;3.30;;;21.00;33.20;;;;;;5011921;28;20486;-55
2020/12/16 04:00:54;;;;;;;3.47;3.17;;;21.00;33.20;;;;;;5011793;28;20420;-56
2020/12/16 04:03:20;;;;;;;4.30;3.40;;;21.00;33.20;;;;;;4994321;28;20765;-55
2020/12/16 04:05:45;;;;;;;4.40;3.10;;;21.00;33.40;;;;;;5011260;28;20972;-56
2020/12/16 04:08:11;;;;;;;4.97;3.22;;;21.00;34.00;;;;;;5011783;28;20381;-56
2020/12/16 04:10:37;;;;;;;6.10;3.50;;;21.10;34.10;;;;;;5011536;28;20385;-55
2020/12/16 04:13:02;;;;;;;4.47;2.92;;;21.20;34.40;;;;;;5011497;28;20392;-55
2020/12/16 04:15:28;;;;;;;5.60;3.07;;;21.20;34.90;;;;;;5007035;28;20884;-56
2020/12/16 04:17:53;;;;;;;4.32;3.30;;;21.30;35.20;;;;;;4980541;28;20417;-55
2020/12/16 04:20:19;;;;;;;6.03;3.30;;;21.30;35.00;;;;;;4991963;28;20425;-55
2020/12/16 04:22:45;;;;;;;4.50;3.42;;;21.30;34.90;;;;;;4990270;28;20449;-55
2020/12/16 04:25:10;;;;;;;4.33;3.30;;;21.30;35.20;;;;;;4990782;28;20460;-55
2020/12/16 04:27:36;;;;;;;6.20;3.20;;;21.30;35.10;;;;;;4990277;28;20394;-55
2020/12/16 04:30:03;;;;;;;5.20;3.20;;;21.30;35.10;;;;;;4990924;28;20615;-55
2020/12/16 04:32:29;;;;;;;4.60;3.30;;;21.40;35.10;;;;;;4991564;28;20386;-56
2020/12/16 04:34:54;;;;;;;4.00;3.30;;;21.40;34.90;;;;;;4990877;28;20417;-55
2020/12/16 04:37:20;;;;;;;3.87;3.10;;;21.40;34.60;;;;;;4990387;28;20489;-55
2020/12/16 04:39:46;;;;;;;3.90;3.10;;;21.40;34.70;;;;;;4990449;28;20518;-55
2020/12/16 04:42:12;;;;;;;5.23;3.20;;;21.40;34.60;;;;;;4991530;28;20430;-55
2020/12/16 04:44:37;;;;;;;4.07;3.20;;;21.40;35.10;;;;;;4990149;28;20399;-55
2020/12/16 04:47:03;;;;;;;5.55;3.20;;;21.40;35.30;;;;;;4991823;28;20481;-56
2020/12/16 04:49:29;;;;;;;8.43;3.43;;;21.40;35.40;;;;;;4991940;28;20763;-55
2020/12/16 04:51:56;;;;;;;5.95;3.80;;;21.50;35.30;;;;;;4991385;28;20746;-55
2020/12/16 04:54:22;;;;;;;5.93;3.72;;;21.40;35.20;;;;;;4991334;28;20775;-58
2020/12/16 04:56:48;;;;;;;5.90;4.17;;;21.40;35.30;;;;;;4991676;28;20390;-56
2020/12/16 04:59:13;;;;;;;4.43;3.55;;;21.40;35.00;;;;;;4991486;28;20418;-56
2020/12/16 05:01:41;;;;;;;5.80;3.70;;;21.30;34.50;;;;;;4973567;28;20944;-56
2020/12/16 05:04:08;;;;;;;5.43;3.17;;;21.30;34.60;;;;;;4991210;28;20453;-56
2020/12/16 05:06:42;;;;;;;6.47;3.47;;;21.30;34.40;;;;;;4991471;28;20394;-56
2020/12/16 05:09:13;;;;;;;12.05;3.65;;;21.30;35.50;;;;;;4991518;28;20494;-56
2020/12/16 05:11:46;;;;;;;8.90;3.25;;;21.30;35.30;;;;;;4991513;28;20383;-56
2020/12/16 05:14:22;;;;;;;8.13;3.15;;;21.20;34.90;;;;;;4991747;28;20397;-56
2020/12/16 05:16:59;;;;;;;8.68;3.60;;;21.20;34.50;;;;;;4991600;28;20387;-55
2020/12/16 05:19:41;;;;;;;6.10;3.55;;;21.30;34.30;;;;;;4991382;28;20505;-56
2020/12/16 05:22:17;;;;;;;7.75;3.38;;;21.20;34.60;;;;;;4991230;28;20477;-56
2020/12/16 05:24:46;;;;;;;9.50;3.38;;;21.20;34.10;;;;;;4995210;28;20394;-55
2020/12/16 05:27:17;;;;;;;7.65;3.53;;;21.20;34.30;;;;;;4976883;28;20403;-56
2020/12/16 05:29:43;;;;;;;8.15;3.25;;;21.10;34.30;;;;;;4992245;28;20474;-56
2020/12/16 05:32:18;;;;;;;7.43;3.80;;;21.10;34.20;;;;;;4993949;28;20490;-55
2020/12/16 05:34:44;;;;;;;6.20;3.47;;;21.10;34.10;;;;;;4995187;28;20405;-56
2020/12/16 05:37:28;;;;;;;6.68;3.53;;;21.10;34.10;;;;;;4994898;28;20953;-56
2020/12/16 05:40:15;;;;;;;4.60;3.30;;;21.10;34.10;;;;;;4994330;28;20454;-56
2020/12/16 05:42:41;;;;;;;5.03;3.40;;;21.10;34.00;;;;;;4985310;28;20391;-56
2020/12/16 05:45:19;;;;;;;5.00;3.10;;;21.10;34.00;;;;;;4994779;28;20413;-56
2020/12/16 05:48:00;;;;;;;6.50;3.30;;;21.10;34.00;;;;;;4994640;28;20743;-56
2020/12/16 05:50:34;;;;;;;3.50;3.20;;;21.10;34.00;;;;;;4994302;28;20473;-56
2020/12/16 05:53:16;;;;;;;4.90;3.38;;;21.10;33.90;;;;;;4993392;28;20485;-56
2020/12/16 05:55:47;;;;;;;4.95;3.17;;;21.00;33.90;;;;;;4994515;28;20394;-55
2020/12/16 05:58:14;;;;;;;4.68;3.20;;;21.10;33.90;;;;;;4994625;28;20387;-56
2020/12/16 06:00:51;;;;;;;4.57;3.30;;;21.10;33.90;;;;;;4994596;28;21044;-56
2020/12/16 06:03:18;;;;;;;4.45;3.60;;;21.00;33.90;;;;;;4994540;28;20402;-56
2020/12/16 06:05:49;;;;;;;4.20;3.38;;;21.00;33.90;;;;;;4994351;28;20395;-56
2020/12/16 06:08:15;;;;;;;3.53;3.22;;;21.10;33.90;;;;;;4994384;28;20389;-56
2020/12/16 06:10:44;;;;;;;4.40;3.25;;;21.10;33.90;;;;;;4994429;28;20391;-56
2020/12/16 06:13:14;;;;;;;5.90;3.33;;;21.00;33.80;;;;;;4993003;28;20450;-56
2020/12/16 06:15:48;;;;;;;3.78;3.28;;;21.00;33.80;;;;;;4993997;28;20814;-56
2020/12/16 06:18:17;;;;;;;3.97;3.30;;;21.00;33.80;;;;;;4992905;28;20869;-56
2020/12/16 06:20:43;;;;;;;3.47;3.15;;;21.00;33.80;;;;;;4994113;28;20418;-55
2020/12/16 06:23:22;;;;;;;4.28;3.10;;;21.00;33.80;;;;;;4994111;28;20390;-55
2020/12/16 06:25:50;;;;;;;3.42;2.97;;;21.00;33.80;;;;;;4993980;28;20430;-55
2020/12/16 06:28:16;;;;;;;3.63;3.33;;;21.00;33.80;;;;;;4994108;28;20452;-56
2020/12/16 06:30:54;;;;;;;4.43;3.25;;;21.00;33.70;;;;;;4994086;28;20398;-56
2020/12/16 06:33:33;;;;;;;3.42;3.00;;;21.00;33.70;;;;;;4993758;28;20405;-55
2020/12/16 06:36:03;;;;;;;3.60;3.30;;;21.00;33.70;;;;;;4992750;28;20457;-55
2020/12/16 06:38:28;;;;;;;3.17;2.88;;;21.00;33.70;;;;;;4993779;28;20402;-56
2020/12/16 06:40:56;;;;;;;3.40;3.10;;;21.00;33.70;;;;;;4993865;28;20410;-56
2020/12/16 06:43:31;;;;;;;3.30;3.00;;;21.00;33.80;;;;;;4993834;28;20383;-55
2020/12/16 06:46:00;;;;;;;3.70;3.30;;;21.00;33.80;;;;;;4993317;28;20435;-55
2020/12/16 06:48:39;;;;;;;3.60;3.30;;;20.90;33.70;;;;;;4993737;28;20467;-55
2020/12/16 06:51:15;;;;;;;3.78;3.22;;;20.90;33.80;;;;;;4993294;28;20425;-56
2020/12/16 06:53:41;;;;;;;3.53;3.22;;;21.00;33.80;;;;;;4993355;28;20391;-56
2020/12/16 06:56:07;;;;;;;3.58;3.28;;;21.00;33.80;;;;;;4993271;28;20395;-55
2020/12/16 06:58:38;;;;;;;3.60;3.30;;;20.90;33.80;;;;;;4993623;28;20391;-56
2020/12/16 07:01:11;;;;;;;3.75;3.40;;;20.90;33.70;;;;;;4993218;28;20405;-56
2020/12/16 07:03:37;;;;;;;3.33;2.90;;;20.90;33.70;;;;;;4993408;28;20890;-56
2020/12/16 07:06:03;;;;;;;3.53;3.22;;;21.00;33.70;;;;;;4992846;28;20394;-56
2020/12/16 07:08:29;;;;;;;3.40;3.10;;;20.90;33.70;;;;;;4993246;28;20446;-56
2020/12/16 07:10:55;;;;;;;3.40;3.10;;;20.90;33.70;;;;;;4992932;28;20403;-56
2020/12/16 07:13:28;;;;;;;3.30;3.00;;;20.90;33.60;;;;;;4992728;28;20410;-56
2020/12/16 07:16:03;;;;;;;3.30;3.00;;;20.90;33.60;;;;;;4991847;28;20481;-56
2020/12/16 07:18:40;;;;;;;3.53;3.22;;;20.90;33.70;;;;;;4995587;28;20897;-56
2020/12/16 07:21:08;;;;;;;3.60;3.30;;;20.90;33.70;;;;;;4993040;28;20408;-56
2020/12/16 07:23:39;;;;;;;3.47;3.17;;;20.90;33.70;;;;;;4992338;28;20898;-56
2020/12/16 07:26:04;;;;;;;3.80;3.30;;;20.90;33.70;;;;;;4991581;28;20858;-56
2020/12/16 07:28:36;;;;;;;3.85;3.10;;;20.90;33.60;;;;;;4992573;28;20405;-56
2020/12/16 07:31:05;;;;;;;3.40;3.10;;;20.90;33.70;;;;;;4992786;28;20387;-55
2020/12/16 07:33:31;;;;;;;3.42;3.13;;;20.90;33.70;;;;;;4992910;28;20407;-56
2020/12/16 07:35:59;;;;;;;3.42;3.13;;;20.90;33.70;;;;;;4992355;28;20393;-55
2020/12/16 07:38:24;;;;;;;3.30;3.00;;;20.90;33.70;;;;;;4991486;28;20827;-56
2020/12/16 07:40:56;;;;;;;4.03;3.63;;;20.90;33.70;;;;;;4995637;28;20509;-56
2020/12/16 07:43:23;;;;;;;5.63;5.13;;;20.90;33.40;;;;;;5004204;28;20392;-56
2020/12/16 07:46:06;;;;;;;6.82;4.50;;;20.90;33.00;;;;;;4997434;28;20409;-56
2020/12/16 07:48:32;;;;;;;5.10;3.97;;;20.80;32.80;;;;;;5001147;28;20398;-56
2020/12/16 07:51:04;;;;;;;5.00;4.00;;;20.80;33.10;;;;;;5001553;28;20874;-56
2020/12/16 07:53:31;;;;;;;5.03;4.03;;;20.90;33.20;;;;;;5004159;28;20401;-56
2020/12/16 07:55:59;;;;;;;4.90;4.28;;;20.80;33.20;;;;;;5000558;28;20414;-56
2020/12/16 07:58:24;;;;;;;5.15;4.03;;;20.80;33.30;;;;;;4999814;28;20409;-56
2020/12/16 08:00:50;;;;;;;4.60;4.00;;;20.80;33.30;;;;;;5001176;28;20417;-56
2020/12/16 08:03:19;;;;;;;4.50;4.10;;;20.80;33.50;;;;;;5000748;28;20792;-56
2020/12/16 08:05:57;;;;;;;5.35;4.00;;;20.80;33.70;;;;;;4999102;28;20410;-55
2020/12/16 08:08:22;;;;;;;4.53;3.50;;;20.80;33.80;;;;;;4999719;28;20407;-56
2020/12/16 08:10:48;;;;;;;5.80;3.80;;;20.80;34.00;;;;;;5002366;28;20391;-55
2020/12/16 08:13:20;;;;;;;4.07;3.67;;;20.80;34.00;;;;;;5001021;28;20389;-56
2020/12/16 08:15:46;;;;;;;3.95;3.63;;;20.80;34.10;;;;;;5001831;28;20455;-56
2020/12/16 08:18:15;;;;;;;4.35;3.30;;;20.80;34.10;;;;;;4998821;28;20892;-56
2020/12/16 08:20:42;;;;;;;3.78;3.40;;;20.80;34.20;;;;;;4998989;28;20500;-56
2020/12/16 08:23:12;;;;;;;4.15;3.75;;;20.70;34.20;;;;;;5001777;28;20397;-56
2020/12/16 08:25:37;;;;;;;4.20;3.80;;;20.80;34.20;;;;;;5000767;28;20518;-56
2020/12/16 08:28:06;;;;;;;4.38;3.80;;;20.80;34.20;;;;;;4999435;28;20420;-56
2020/12/16 08:30:32;;;;;;;3.63;3.33;;;20.80;34.30;;;;;;5002313;28;20383;-55
2020/12/16 08:33:08;;;;;;;3.95;3.55;;;20.80;34.20;;;;;;5000329;28;20452;-56
2020/12/16 08:35:57;;;;;;;4.03;3.63;;;20.70;34.20;;;;;;5000453;28;20473;-56
2020/12/16 08:38:37;;;;;;;3.78;3.45;;;20.70;34.30;;;;;;5001126;28;20405;-55
2020/12/16 08:41:06;;;;;;;4.43;3.63;;;20.70;34.40;;;;;;5001227;28;20782;-56
2020/12/16 08:43:37;;;;;;;3.92;3.53;;;20.70;34.40;;;;;;4999817;28;20406;-56
2020/12/16 08:46:12;;;;;;;4.07;3.67;;;20.70;34.40;;;;;;4999033;28;20877;-61
2020/12/16 08:48:49;;;;;;;3.78;3.45;;;20.70;34.40;;;;;;5000303;28;20398;-56
2020/12/16 08:51:32;;;;;;;4.13;3.60;;;20.70;34.40;;;;;;5000118;28;20410;-65
2020/12/16 08:54:05;;;;;;;4.10;3.55;;;20.70;34.50;;;;;;4999839;28;20389;-58
2020/12/16 08:56:44;;;;;;;4.07;3.60;;;20.70;34.50;;;;;;4999625;28;20399;-56
2020/12/16 08:59:39;;;;;;;3.67;3.38;;;20.60;34.60;;;;;;5004549;28;20446;-56
2020/12/16 09:02:09;;;;;;;3.85;3.55;;;20.60;34.60;;;;;;4975327;28;20423;-56
2020/12/16 09:04:43;;;;;;;3.83;3.53;;;20.70;34.70;;;;;;5007144;28;20422;-56
2020/12/16 09:07:22;;;;;;;3.93;3.53;;;20.60;34.70;;;;;;5002660;28;20418;-56
2020/12/16 09:09:47;;;;;;;3.92;3.58;;;20.60;34.70;;;;;;5007885;28;20391;-56
2020/12/16 09:12:16;;;;;;;3.90;3.50;;;20.60;34.70;;;;;;5003527;28;20825;-56
2020/12/16 09:14:59;;;;;;;3.95;3.55;;;20.70;34.70;;;;;;5004382;28;20377;-56
2020/12/16 09:17:26;;;;;;;4.10;3.70;;;20.60;34.70;;;;;;5003902;28;20898;-56
2020/12/16 09:19:52;;;;;;;4.15;3.75;;;20.60;34.70;;;;;;5002743;28;20434;-56
2020/12/16 09:22:23;;;;;;;3.97;3.67;;;20.60;34.70;;;;;;4995426;28;20876;-56
2020/12/16 09:24:48;;;;;;;3.90;3.50;;;20.60;34.70;;;;;;4995303;28;20430;-58
2020/12/16 09:27:14;;;;;;;5.17;3.63;;;20.60;34.60;;;;;;4995233;28;20432;-56
2020/12/16 09:29:45;;;;;;;5.78;3.60;;;20.50;34.80;;;;;;4995176;28;20398;-58
2020/12/16 09:32:15;;;;;;;4.78;3.40;;;20.50;34.80;;;;;;4994664;28;20386;-56
2020/12/16 09:34:49;;;;;;;5.60;3.60;;;20.60;34.80;;;;;;4995131;28;20859;-56
2020/12/16 09:37:17;;;;;;;4.97;3.45;;;20.60;34.70;;;;;;4994872;28;20398;-56
2020/12/16 09:39:44;;;;;;;4.83;3.67;;;20.60;34.60;;;;;;4994950;28;20874;-56
2020/12/16 09:42:17;;;;;;;6.18;3.50;;;20.60;34.70;;;;;;4994474;28;20402;-56
2020/12/16 09:44:47;;;;;;;4.63;3.80;;;20.60;34.70;;;;;;4994967;28;20395;-56
2020/12/16 09:47:16;;;;;;;4.75;3.70;;;20.60;34.80;;;;;;4994858;28;20418;-56
2020/12/16 09:49:44;;;;;;;3.95;3.60;;;20.60;34.80;;;;;;4994797;28;20944;-56
2020/12/16 09:52:25;;;;;;;6.25;5.60;;;20.60;34.80;;;;;;4994130;28;20429;-56
2020/12/16 09:54:51;;;;;;;5.00;4.50;;;20.50;34.60;;;;;;5001097;28;20459;-56
2020/12/16 09:57:20;;;;;;;5.70;4.40;;;20.50;34.90;;;;;;5005088;28;20398;-56
2020/12/16 09:59:46;;;;;;;6.75;4.88;;;20.50;34.80;;;;;;4998530;28;20907;-56
2020/12/16 10:02:11;;;;;;;5.55;4.57;;;20.40;34.80;;;;;;5003601;28;20424;-57
2020/12/16 10:04:37;;;;;;;6.13;4.60;;;20.40;34.90;;;;;;5000965;28;20404;-59
2020/12/16 10:07:03;;;;;;;5.30;4.63;;;20.40;34.90;;;;;;5002791;28;20431;-64
2020/12/16 10:09:29;;;;;;;6.20;4.70;;;20.50;34.90;;;;;;5002439;28;20492;-58
2020/12/16 10:11:54;;;;;;;5.20;4.70;;;20.50;34.90;;;;;;5002400;28;20886;-56
2020/12/16 10:14:20;;;;;;;4.93;4.50;;;20.50;34.90;;;;;;5004652;28;20523;-56
2020/12/16 10:16:47;;;;;;;5.85;5.07;;;20.50;34.90;;;;;;5002848;28;20402;-56
2020/12/16 10:19:16;;;;;;;5.85;5.10;;;20.50;34.90;;;;;;5002369;28;20410;-56
2020/12/16 10:21:46;;;;;;;6.90;5.13;;;20.50;34.90;;;;;;5006052;28;20872;-56
2020/12/16 10:24:11;;;;;;;5.90;5.07;;;20.50;34.90;;;;;;5005295;28;20962;-56
2020/12/16 10:26:37;;;;;;;5.72;5.13;;;20.50;34.90;;;;;;5001655;28;20478;-62
2020/12/16 10:29:03;;;;;;;5.67;5.03;;;20.50;34.90;;;;;;4999486;28;20419;-56
2020/12/16 10:31:28;;;;;;;5.45;4.95;;;20.50;34.90;;;;;;5002302;28;20495;-60
2020/12/16 10:33:54;;;;;;;5.38;4.78;;;20.50;34.90;;;;;;5001858;28;20424;-58
2020/12/16 10:36:20;;;;;;;5.67;5.10;;;20.50;34.90;;;;;;5002336;28;20395;-63
2020/12/16 10:38:46;;;;;;;6.00;5.40;;;20.50;34.90;;;;;;5002571;28;20404;-56
2020/12/16 10:41:12;;;;;;;6.17;5.50;;;20.50;34.90;;;;;;5001552;28;20453;-56
2020/12/16 10:43:38;;;;;;;6.22;5.32;;;20.50;34.90;;;;;;5004657;28;20475;-56
2020/12/16 10:46:07;;;;;;;7.40;5.32;;;20.50;34.90;;;;;;5001531;28;20431;-56
2020/12/16 10:48:33;;;;;;;6.30;5.60;;;20.50;34.90;;;;;;5003072;28;20418;-56
2020/12/16 10:50:58;;;;;;;6.43;5.77;;;20.50;34.90;;;;;;5002772;28;20433;-56
2020/12/16 10:53:25;;;;;;;6.10;5.50;;;20.50;34.90;;;;;;5001572;28;20392;-56
2020/12/16 10:55:52;;;;;;;6.78;5.88;;;20.50;35.00;;;;;;4987993;28;20426;-57
2020/12/16 10:58:18;;;;;;;6.60;5.90;;;20.50;35.00;;;;;;5001701;28;20392;-56
2020/12/16 11:00:44;;;;;;;7.07;6.10;;;20.50;34.90;;;;;;5003538;28;20506;-56
2020/12/16 11:03:09;;;;;;;6.78;5.93;;;20.50;35.00;;;;;;5001665;28;20412;-58
2020/12/16 11:05:35;;;;;;;6.77;6.00;;;20.50;35.00;;;;;;5002207;28;20405;-56
2020/12/16 11:08:01;;;;;;;6.88;6.03;;;20.50;35.00;;;;;;5000886;28;20390;-56
2020/12/16 11:10:27;;;;;;;7.05;6.18;;;20.50;35.00;;;;;;5003665;28;20397;-56
2020/12/16 11:12:52;;;;;;;6.83;5.97;;;20.50;35.00;;;;;;5001282;28;20471;-56
2020/12/16 11:15:18;;;;;;;6.80;6.10;;;20.50;35.00;;;;;;4999085;28;20406;-56
2020/12/16 11:17:44;;;;;;;7.30;5.90;;;20.50;35.00;;;;;;5003030;28;20429;-56
2020/12/16 11:20:09;;;;;;;6.95;5.80;;;20.40;35.00;;;;;;4999126;28;20927;-61
2020/12/16 11:22:37;;;;;;;7.63;6.20;;;20.50;35.00;;;;;;5002301;28;20386;-56
2020/12/16 11:25:04;;;;;;;7.20;6.07;;;20.50;35.00;;;;;;5000440;28;20498;-63
2020/12/16 11:27:30;;;;;;;6.80;5.95;;;20.50;35.00;;;;;;5000488;28;20493;-60
2020/12/16 11:29:55;;;;;;;7.10;6.23;;;20.50;35.00;;;;;;4999114;28;20433;-62
2020/12/16 11:32:21;;;;;;;7.10;6.10;;;20.40;35.10;;;;;;5002555;28;20426;-56
2020/12/16 11:34:47;;;;;;;6.43;5.72;;;20.50;35.10;;;;;;5003299;28;20988;-56
2020/12/16 11:37:14;;;;;;;6.57;5.87;;;20.40;35.00;;;;;;5000615;28;20416;-56
2020/12/16 11:39:42;;;;;;;6.93;6.03;;;20.40;35.00;;;;;;5001142;28;20421;-56
2020/12/16 11:42:09;;;;;;;6.70;6.00;;;20.40;35.00;;;;;;5002572;28;20400;-55
2020/12/16 11:44:35;;;;;;;6.78;5.60;;;20.40;35.00;;;;;;5000603;28;20405;-56
2020/12/16 11:47:04;;;;;;;6.57;5.45;;;20.40;35.00;;;;;;5001655;28;20389;-56
2020/12/16 11:49:30;;;;;;;6.60;5.85;;;20.40;35.10;;;;;;5000918;28;20402;-56
2020/12/16 11:51:56;;;;;;;6.88;5.65;;;20.40;35.10;;;;;;5001398;28;20391;-56
2020/12/16 11:54:22;;;;;;;6.00;5.40;;;20.40;35.10;;;;;;5001482;28;20830;-56
2020/12/16 11:56:48;;;;;;;6.25;5.57;;;20.40;35.70;;;;;;4985980;28;20392;-56
2020/12/16 11:59:14;;;;;;;6.38;5.72;;;20.40;35.10;;;;;;5001216;28;20469;-56
2020/12/16 12:01:42;;;;;;;6.83;5.83;;;20.40;35.10;;;;;;5001659;28;20800;-56
2020/12/16 12:04:07;;;;;;;6.25;5.65;;;20.40;35.10;;;;;;4999521;28;20401;-56
2020/12/16 12:06:33;;;;;;;6.30;5.65;;;20.40;35.20;;;;;;5002163;28;20402;-56
2020/12/16 12:08:59;;;;;;;5.70;5.10;;;20.40;35.10;;;;;;5000750;28;20390;-56
2020/12/16 12:11:24;;;;;;;6.18;5.57;;;20.40;35.20;;;;;;5001080;28;20398;-62
2020/12/16 12:13:51;;;;;;;6.10;5.13;;;20.40;35.30;;;;;;5000655;28;20463;-56
2020/12/16 12:16:18;;;;;;;5.90;5.30;;;20.40;35.20;;;;;;4999867;28;20414;-56
2020/12/16 12:18:44;;;;;;;6.13;5.10;;;20.40;35.20;;;;;;5002445;28;20393;-56
2020/12/16 12:21:15;;;;;;;5.55;4.93;;;20.40;35.10;;;;;;4999182;28;20464;-57
2020/12/16 12:23:40;;;;;;;5.85;5.05;;;20.40;35.20;;;;;;5000220;28;20393;-56
2020/12/16 12:26:06;;;;;;;5.63;5.03;;;20.40;35.20;;;;;;5002070;28;20624;-56
2020/12/16 12:28:32;;;;;;;5.67;5.10;;;20.40;35.20;;;;;;4999066;28;20750;-56
2020/12/16 12:30:58;;;;;;;5.65;5.05;;;20.40;35.20;;;;;;5001680;28;20483;-56
2020/12/16 12:33:23;;;;;;;5.75;5.07;;;20.40;35.20;;;;;;5003672;28;20389;-56
2020/12/16 12:35:49;;;;;;;5.17;4.67;;;20.40;35.20;;;;;;5004586;28;20394;-56
2020/12/16 12:38:15;;;;;;;5.40;4.90;;;20.40;35.20;;;;;;5005485;28;20389;-56
2020/12/16 12:40:41;;;;;;;5.45;4.85;;;20.40;35.20;;;;;;5003364;28;20413;-56
2020/12/16 12:43:07;;;;;;;5.80;5.00;;;20.40;35.20;;;;;;5004758;28;20481;-65
2020/12/16 12:45:33;;;;;;;6.40;5.00;;;20.40;35.30;;;;;;5004219;28;20439;-56
2020/12/16 12:47:59;;;;;;;12.45;5.43;;;20.40;35.20;;;;;;5005249;28;20384;-56
2020/12/16 12:50:25;;;;;;;26.43;5.80;;;20.30;35.20;;;;;;5004064;28;20402;-57